sensor_id;sensor_type;location;lat;lon;timestamp;P1;durP1;ratioP1;P2;durP2;ratioP2
34978;SDS011;21185;50.978;13.720;2023-05-20T00:04:33;14.93;;;6.85;;
34978;SDS011;21185;50.978;13.720;2023-05-20T00:09:37;18.73;;;7.32;;
34978;SDS011;21185;50.978;13.720;2023-05-20T00:14:40;13.63;;;6.53;;
34978;SDS011;21185;50.978;13.720;2023-05-20T00:19:42;14.07;;;7.20;;
34978;SDS011;21185;50.978;13.720;2023-05-20T00:24:46;18.25;;;7.57;;
34978;SDS011;21185;50.978;13.720;2023-05-20T00:29:48;17.50;;;7.50;;
34978;SDS011;21185;50.978;13.720;2023-05-20T00:34:56;13.90;;;7.15;;
34978;SDS011;21185;50.978;13.720;2023-05-20T00:39:59;13.18;;;7.20;;
34978;SDS011;21185;50.978;13.720;2023-05-20T00:45:01;15.98;;;6.70;;
34978;SDS011;21185;50.978;13.720;2023-05-20T00:50:04;15.98;;;7.68;;
34978;SDS011;21185;50.978;13.720;2023-05-20T00:55:06;13.40;;;7.00;;
34978;SDS011;21185;50.978;13.720;2023-05-20T01:00:09;15.23;;;7.82;;
34978;SDS011;21185;50.978;13.720;2023-05-20T01:05:12;16.02;;;7.47;;
34978;SDS011;21185;50.978;13.720;2023-05-20T01:10:14;14.65;;;7.57;;
34978;SDS011;21185;50.978;13.720;2023-05-20T01:15:16;17.30;;;8.25;;
34978;SDS011;21185;50.978;13.720;2023-05-20T01:20:24;16.98;;;7.88;;
34978;SDS011;21185;50.978;13.720;2023-05-20T01:25:29;22.25;;;9.43;;
34978;SDS011;21185;50.978;13.720;2023-05-20T01:30:32;15.70;;;7.85;;
34978;SDS011;21185;50.978;13.720;2023-05-20T01:35:40;15.85;;;8.23;;
34978;SDS011;21185;50.978;13.720;2023-05-20T01:40:43;16.35;;;7.85;;
34978;SDS011;21185;50.978;13.720;2023-05-20T01:45:48;16.60;;;8.05;;
34978;SDS011;21185;50.978;13.720;2023-05-20T01:50:51;21.88;;;8.80;;
34978;SDS011;21185;50.978;13.720;2023-05-20T01:55:55;20.48;;;8.80;;
34978;SDS011;21185;50.978;13.720;2023-05-20T02:00:58;19.52;;;8.93;;
34978;SDS011;21185;50.978;13.720;2023-05-20T02:06:01;16.63;;;7.68;;
34978;SDS011;21185;50.978;13.720;2023-05-20T02:11:05;17.77;;;8.38;;
34978;SDS011;21185;50.978;13.720;2023-05-20T02:16:08;19.58;;;9.10;;
34978;SDS011;21185;50.978;13.720;2023-05-20T02:21:10;19.63;;;9.57;;
34978;SDS011;21185;50.978;13.720;2023-05-20T02:26:12;17.85;;;9.38;;
34978;SDS011;21185;50.978;13.720;2023-05-20T02:31:14;18.83;;;8.93;;
34978;SDS011;21185;50.978;13.720;2023-05-20T02:36:16;18.95;;;8.75;;
34978;SDS011;21185;50.978;13.720;2023-05-20T02:41:19;20.63;;;9.77;;
34978;SDS011;21185;50.978;13.720;2023-05-20T02:46:22;17.05;;;8.75;;
34978;SDS011;21185;50.978;13.720;2023-05-20T02:51:24;20.42;;;8.77;;
34978;SDS011;21185;50.978;13.720;2023-05-20T02:56:26;20.80;;;9.63;;
34978;SDS011;21185;50.978;13.720;2023-05-20T03:01:29;19.42;;;9.18;;
34978;SDS011;21185;50.978;13.720;2023-05-20T03:06:31;19.00;;;8.32;;
34978;SDS011;21185;50.978;13.720;2023-05-20T03:11:34;18.17;;;8.48;;
34978;SDS011;21185;50.978;13.720;2023-05-20T03:16:36;22.10;;;8.52;;
34978;SDS011;21185;50.978;13.720;2023-05-20T03:21:39;21.42;;;9.60;;
34978;SDS011;21185;50.978;13.720;2023-05-20T03:26:42;15.68;;;7.70;;
34978;SDS011;21185;50.978;13.720;2023-05-20T03:31:44;17.50;;;7.97;;
34978;SDS011;21185;50.978;13.720;2023-05-20T03:36:49;18.25;;;9.02;;
34978;SDS011;21185;50.978;13.720;2023-05-20T03:41:53;19.20;;;8.85;;
34978;SDS011;21185;50.978;13.720;2023-05-20T03:46:55;14.95;;;7.88;;
34978;SDS011;21185;50.978;13.720;2023-05-20T03:51:57;16.40;;;7.85;;
34978;SDS011;21185;50.978;13.720;2023-05-20T03:56:59;21.92;;;9.80;;
34978;SDS011;21185;50.978;13.720;2023-05-20T04:02:01;18.45;;;9.05;;
34978;SDS011;21185;50.978;13.720;2023-05-20T04:07:04;18.90;;;8.45;;
34978;SDS011;21185;50.978;13.720;2023-05-20T04:12:08;16.67;;;7.68;;
34978;SDS011;21185;50.978;13.720;2023-05-20T04:17:12;26.35;;;8.10;;
34978;SDS011;21185;50.978;13.720;2023-05-20T04:22:14;20.98;;;8.95;;
34978;SDS011;21185;50.978;13.720;2023-05-20T04:27:16;16.00;;;8.57;;
34978;SDS011;21185;50.978;13.720;2023-05-20T04:32:19;18.33;;;8.48;;
34978;SDS011;21185;50.978;13.720;2023-05-20T04:37:21;20.80;;;8.70;;
34978;SDS011;21185;50.978;13.720;2023-05-20T04:42:24;17.98;;;8.75;;
34978;SDS011;21185;50.978;13.720;2023-05-20T04:47:27;17.55;;;8.82;;
34978;SDS011;21185;50.978;13.720;2023-05-20T04:52:32;23.77;;;8.95;;
34978;SDS011;21185;50.978;13.720;2023-05-20T04:57:34;21.02;;;9.93;;
34978;SDS011;21185;50.978;13.720;2023-05-20T05:02:40;26.13;;;9.63;;
34978;SDS011;21185;50.978;13.720;2023-05-20T05:07:42;18.20;;;8.32;;
34978;SDS011;21185;50.978;13.720;2023-05-20T05:12:45;19.95;;;8.93;;
34978;SDS011;21185;50.978;13.720;2023-05-20T05:17:52;22.75;;;9.13;;
34978;SDS011;21185;50.978;13.720;2023-05-20T05:22:57;24.05;;;9.18;;
34978;SDS011;21185;50.978;13.720;2023-05-20T05:27:59;22.15;;;9.45;;
34978;SDS011;21185;50.978;13.720;2023-05-20T05:33:02;21.88;;;9.68;;
34978;SDS011;21185;50.978;13.720;2023-05-20T05:38:04;21.17;;;9.68;;
34978;SDS011;21185;50.978;13.720;2023-05-20T05:43:09;22.80;;;9.98;;
34978;SDS011;21185;50.978;13.720;2023-05-20T05:48:20;24.35;;;9.70;;
34978;SDS011;21185;50.978;13.720;2023-05-20T05:53:22;26.83;;;10.98;;
34978;SDS011;21185;50.978;13.720;2023-05-20T05:58:27;21.63;;;10.23;;
34978;SDS011;21185;50.978;13.720;2023-05-20T06:03:29;20.15;;;9.43;;
34978;SDS011;21185;50.978;13.720;2023-05-20T06:08:31;21.75;;;9.88;;
34978;SDS011;21185;50.978;13.720;2023-05-20T06:13:35;20.77;;;10.30;;
34978;SDS011;21185;50.978;13.720;2023-05-20T06:18:37;20.58;;;9.40;;
34978;SDS011;21185;50.978;13.720;2023-05-20T06:23:40;23.83;;;10.07;;
34978;SDS011;21185;50.978;13.720;2023-05-20T06:28:44;25.58;;;10.55;;
34978;SDS011;21185;50.978;13.720;2023-05-20T06:33:47;24.63;;;10.35;;
34978;SDS011;21185;50.978;13.720;2023-05-20T06:38:49;22.27;;;10.07;;
34978;SDS011;21185;50.978;13.720;2023-05-20T06:43:54;24.77;;;9.73;;
34978;SDS011;21185;50.978;13.720;2023-05-20T06:49:19;19.73;;;9.55;;
34978;SDS011;21185;50.978;13.720;2023-05-20T06:54:22;22.13;;;10.90;;
34978;SDS011;21185;50.978;13.720;2023-05-20T06:59:24;20.02;;;10.82;;
34978;SDS011;21185;50.978;13.720;2023-05-20T07:04:28;22.88;;;9.88;;
34978;SDS011;21185;50.978;13.720;2023-05-20T07:09:31;22.85;;;10.15;;
34978;SDS011;21185;50.978;13.720;2023-05-20T07:19:40;23.65;;;10.27;;
34978;SDS011;21185;50.978;13.720;2023-05-20T07:24:44;22.00;;;9.90;;
34978;SDS011;21185;50.978;13.720;2023-05-20T07:29:46;24.42;;;9.73;;
34978;SDS011;21185;50.978;13.720;2023-05-20T07:34:49;23.58;;;10.23;;
34978;SDS011;21185;50.978;13.720;2023-05-20T07:39:52;18.73;;;9.63;;
34978;SDS011;21185;50.978;13.720;2023-05-20T07:44:55;22.95;;;10.55;;
34978;SDS011;21185;50.978;13.720;2023-05-20T07:50:00;24.42;;;10.50;;
34978;SDS011;21185;50.978;13.720;2023-05-20T07:55:14;26.90;;;9.75;;
34978;SDS011;21185;50.978;13.720;2023-05-20T08:00:27;20.27;;;9.70;;
34978;SDS011;21185;50.978;13.720;2023-05-20T08:05:39;21.80;;;9.32;;
34978;SDS011;21185;50.978;13.720;2023-05-20T08:10:43;27.50;;;10.63;;
34978;SDS011;21185;50.978;13.720;2023-05-20T08:15:46;18.15;;;9.98;;
34978;SDS011;21185;50.978;13.720;2023-05-20T08:20:49;19.25;;;9.25;;
34978;SDS011;21185;50.978;13.720;2023-05-20T08:25:52;22.17;;;10.18;;
34978;SDS011;21185;50.978;13.720;2023-05-20T08:30:57;25.25;;;10.65;;
34978;SDS011;21185;50.978;13.720;2023-05-20T08:36:03;18.85;;;9.63;;
34978;SDS011;21185;50.978;13.720;2023-05-20T08:41:07;20.05;;;9.27;;
34978;SDS011;21185;50.978;13.720;2023-05-20T08:46:14;22.57;;;10.03;;
34978;SDS011;21185;50.978;13.720;2023-05-20T08:51:19;19.63;;;9.52;;
34978;SDS011;21185;50.978;13.720;2023-05-20T08:56:26;23.50;;;10.93;;
34978;SDS011;21185;50.978;13.720;2023-05-20T09:01:31;21.45;;;9.93;;
34978;SDS011;21185;50.978;13.720;2023-05-20T09:06:45;22.17;;;9.75;;
34978;SDS011;21185;50.978;13.720;2023-05-20T09:11:50;23.00;;;9.80;;
34978;SDS011;21185;50.978;13.720;2023-05-20T09:16:52;26.55;;;9.77;;
34978;SDS011;21185;50.978;13.720;2023-05-20T09:21:55;19.25;;;10.30;;
34978;SDS011;21185;50.978;13.720;2023-05-20T09:26:59;18.50;;;8.50;;
34978;SDS011;21185;50.978;13.720;2023-05-20T09:32:01;21.65;;;9.90;;
34978;SDS011;21185;50.978;13.720;2023-05-20T09:37:05;18.38;;;9.00;;
34978;SDS011;21185;50.978;13.720;2023-05-20T09:42:14;36.13;;;11.93;;
34978;SDS011;21185;50.978;13.720;2023-05-20T09:47:27;19.67;;;8.73;;
34978;SDS011;21185;50.978;13.720;2023-05-20T09:52:30;19.90;;;8.55;;
34978;SDS011;21185;50.978;13.720;2023-05-20T09:57:33;20.92;;;9.05;;
34978;SDS011;21185;50.978;13.720;2023-05-20T10:02:43;17.67;;;8.13;;
34978;SDS011;21185;50.978;13.720;2023-05-20T10:24:34;17.70;;;9.38;;
34978;SDS011;21185;50.978;13.720;2023-05-20T10:29:43;18.55;;;7.93;;
34978;SDS011;21185;50.978;13.720;2023-05-20T10:34:57;15.35;;;8.10;;
34978;SDS011;21185;50.978;13.720;2023-05-20T10:45:26;20.23;;;9.15;;
34978;SDS011;21185;50.978;13.720;2023-05-20T10:50:36;16.70;;;7.93;;
34978;SDS011;21185;50.978;13.720;2023-05-20T10:55:46;14.35;;;7.82;;
34978;SDS011;21185;50.978;13.720;2023-05-20T11:00:52;16.50;;;8.55;;
34978;SDS011;21185;50.978;13.720;2023-05-20T11:05:57;16.27;;;8.40;;
34978;SDS011;21185;50.978;13.720;2023-05-20T11:10:59;22.48;;;8.38;;
34978;SDS011;21185;50.978;13.720;2023-05-20T11:16:02;17.95;;;8.13;;
34978;SDS011;21185;50.978;13.720;2023-05-20T11:21:05;16.55;;;7.93;;
34978;SDS011;21185;50.978;13.720;2023-05-20T11:26:08;18.42;;;8.32;;
34978;SDS011;21185;50.978;13.720;2023-05-20T11:34:33;14.82;;;7.95;;
34978;SDS011;21185;50.978;13.720;2023-05-20T11:39:37;15.38;;;8.02;;
34978;SDS011;21185;50.978;13.720;2023-05-20T11:44:42;15.00;;;7.50;;
34978;SDS011;21185;50.978;13.720;2023-05-20T11:49:48;13.88;;;7.47;;
34978;SDS011;21185;50.978;13.720;2023-05-20T11:54:51;15.52;;;8.13;;
34978;SDS011;21185;50.978;13.720;2023-05-20T11:59:54;19.50;;;8.15;;
34978;SDS011;21185;50.978;13.720;2023-05-20T12:04:56;16.17;;;7.95;;
34978;SDS011;21185;50.978;13.720;2023-05-20T12:10:02;21.15;;;7.72;;
34978;SDS011;21185;50.978;13.720;2023-05-20T12:15:07;16.73;;;8.25;;
34978;SDS011;21185;50.978;13.720;2023-05-20T12:20:10;14.45;;;7.18;;
34978;SDS011;21185;50.978;13.720;2023-05-20T12:25:17;14.27;;;6.78;;
34978;SDS011;21185;50.978;13.720;2023-05-20T12:30:23;17.75;;;7.95;;
34978;SDS011;21185;50.978;13.720;2023-05-20T12:35:35;15.73;;;7.15;;
34978;SDS011;21185;50.978;13.720;2023-05-20T12:40:38;13.48;;;7.18;;
34978;SDS011;21185;50.978;13.720;2023-05-20T12:45:42;15.75;;;7.35;;
34978;SDS011;21185;50.978;13.720;2023-05-20T12:50:45;14.30;;;7.53;;
34978;SDS011;21185;50.978;13.720;2023-05-20T12:55:47;16.30;;;7.30;;
34978;SDS011;21185;50.978;13.720;2023-05-20T13:00:50;12.98;;;6.80;;
34978;SDS011;21185;50.978;13.720;2023-05-20T13:05:52;15.63;;;6.97;;
34978;SDS011;21185;50.978;13.720;2023-05-20T13:10:54;12.70;;;7.13;;
34978;SDS011;21185;50.978;13.720;2023-05-20T13:15:57;13.30;;;6.82;;
34978;SDS011;21185;50.978;13.720;2023-05-20T13:20:59;16.27;;;7.00;;
34978;SDS011;21185;50.978;13.720;2023-05-20T13:26:02;20.73;;;7.20;;
34978;SDS011;21185;50.978;13.720;2023-05-20T13:31:04;11.60;;;6.10;;
34978;SDS011;21185;50.978;13.720;2023-05-20T13:36:09;14.48;;;7.72;;
34978;SDS011;21185;50.978;13.720;2023-05-20T13:41:13;12.10;;;6.40;;
34978;SDS011;21185;50.978;13.720;2023-05-20T13:46:15;14.60;;;6.90;;
34978;SDS011;21185;50.978;13.720;2023-05-20T13:51:18;15.93;;;6.82;;
34978;SDS011;21185;50.978;13.720;2023-05-20T13:56:20;14.18;;;6.65;;
34978;SDS011;21185;50.978;13.720;2023-05-20T14:01:29;16.25;;;6.97;;
34978;SDS011;21185;50.978;13.720;2023-05-20T14:06:37;14.52;;;6.78;;
34978;SDS011;21185;50.978;13.720;2023-05-20T14:11:40;13.63;;;6.15;;
34978;SDS011;21185;50.978;13.720;2023-05-20T14:16:52;15.63;;;5.95;;
34978;SDS011;21185;50.978;13.720;2023-05-20T14:21:57;12.60;;;6.47;;
34978;SDS011;21185;50.978;13.720;2023-05-20T14:27:02;12.25;;;6.70;;
34978;SDS011;21185;50.978;13.720;2023-05-20T14:32:04;14.45;;;7.03;;
34978;SDS011;21185;50.978;13.720;2023-05-20T14:37:08;12.52;;;6.20;;
34978;SDS011;21185;50.978;13.720;2023-05-20T14:42:10;13.50;;;7.25;;
34978;SDS011;21185;50.978;13.720;2023-05-20T14:47:13;18.17;;;6.43;;
34978;SDS011;21185;50.978;13.720;2023-05-20T14:52:20;12.77;;;7.25;;
34978;SDS011;21185;50.978;13.720;2023-05-20T14:57:23;14.50;;;7.32;;
34978;SDS011;21185;50.978;13.720;2023-05-20T15:02:25;17.70;;;7.85;;
34978;SDS011;21185;50.978;13.720;2023-05-20T15:07:27;12.93;;;7.07;;
34978;SDS011;21185;50.978;13.720;2023-05-20T15:12:29;17.13;;;8.02;;
34978;SDS011;21185;50.978;13.720;2023-05-20T15:17:31;14.68;;;6.88;;
34978;SDS011;21185;50.978;13.720;2023-05-20T15:22:34;14.55;;;7.85;;
34978;SDS011;21185;50.978;13.720;2023-05-20T15:27:36;17.13;;;7.95;;
34978;SDS011;21185;50.978;13.720;2023-05-20T15:32:38;13.77;;;7.57;;
34978;SDS011;21185;50.978;13.720;2023-05-20T15:37:42;12.18;;;6.63;;
34978;SDS011;21185;50.978;13.720;2023-05-20T15:42:44;16.10;;;7.78;;
34978;SDS011;21185;50.978;13.720;2023-05-20T15:47:48;15.00;;;7.53;;
34978;SDS011;21185;50.978;13.720;2023-05-20T15:52:51;18.80;;;7.90;;
34978;SDS011;21185;50.978;13.720;2023-05-20T15:57:53;15.10;;;8.20;;
34978;SDS011;21185;50.978;13.720;2023-05-20T16:02:55;13.45;;;7.20;;
34978;SDS011;21185;50.978;13.720;2023-05-20T16:07:58;15.73;;;7.57;;
34978;SDS011;21185;50.978;13.720;2023-05-20T16:13:00;16.33;;;8.38;;
34978;SDS011;21185;50.978;13.720;2023-05-20T16:18:03;16.17;;;8.43;;
34978;SDS011;21185;50.978;13.720;2023-05-20T16:23:06;15.50;;;8.18;;
34978;SDS011;21185;50.978;13.720;2023-05-20T16:28:09;20.00;;;8.95;;
34978;SDS011;21185;50.978;13.720;2023-05-20T16:33:11;19.35;;;8.20;;
34978;SDS011;21185;50.978;13.720;2023-05-20T16:38:13;19.08;;;9.48;;
34978;SDS011;21185;50.978;13.720;2023-05-20T16:43:15;16.95;;;9.07;;
34978;SDS011;21185;50.978;13.720;2023-05-20T16:48:20;16.10;;;8.82;;
34978;SDS011;21185;50.978;13.720;2023-05-20T16:53:24;16.98;;;9.25;;
34978;SDS011;21185;50.978;13.720;2023-05-20T16:58:26;19.35;;;9.68;;
34978;SDS011;21185;50.978;13.720;2023-05-20T17:03:28;15.20;;;9.05;;
34978;SDS011;21185;50.978;13.720;2023-05-20T17:08:32;17.70;;;9.10;;
34978;SDS011;21185;50.978;13.720;2023-05-20T17:13:38;17.73;;;8.90;;
34978;SDS011;21185;50.978;13.720;2023-05-20T17:18:42;18.88;;;9.20;;
34978;SDS011;21185;50.978;13.720;2023-05-20T17:23:45;14.95;;;8.20;;
34978;SDS011;21185;50.978;13.720;2023-05-20T17:28:48;18.92;;;8.30;;
34978;SDS011;21185;50.978;13.720;2023-05-20T17:33:50;14.13;;;8.25;;
34978;SDS011;21185;50.978;13.720;2023-05-20T17:38:54;13.88;;;8.02;;
34978;SDS011;21185;50.978;13.720;2023-05-20T17:43:56;13.88;;;7.13;;
34978;SDS011;21185;50.978;13.720;2023-05-20T17:48:58;17.38;;;7.28;;
34978;SDS011;21185;50.978;13.720;2023-05-20T17:54:00;11.73;;;6.93;;
34978;SDS011;21185;50.978;13.720;2023-05-20T17:59:02;13.95;;;7.50;;
34978;SDS011;21185;50.978;13.720;2023-05-20T18:04:05;11.93;;;6.85;;
34978;SDS011;21185;50.978;13.720;2023-05-20T18:09:07;11.20;;;6.95;;
34978;SDS011;21185;50.978;13.720;2023-05-20T18:14:10;16.02;;;7.25;;
34978;SDS011;21185;50.978;13.720;2023-05-20T18:19:12;16.83;;;7.38;;
34978;SDS011;21185;50.978;13.720;2023-05-20T18:24:16;15.23;;;7.32;;
34978;SDS011;21185;50.978;13.720;2023-05-20T18:29:23;13.95;;;6.97;;
34978;SDS011;21185;50.978;13.720;2023-05-20T18:34:27;14.40;;;6.90;;
34978;SDS011;21185;50.978;13.720;2023-05-20T18:39:29;12.70;;;6.72;;
34978;SDS011;21185;50.978;13.720;2023-05-20T18:44:31;15.32;;;7.82;;
34978;SDS011;21185;50.978;13.720;2023-05-20T18:49:38;13.32;;;7.63;;
34978;SDS011;21185;50.978;13.720;2023-05-20T18:54:41;14.02;;;6.95;;
34978;SDS011;21185;50.978;13.720;2023-05-20T18:59:43;14.10;;;6.75;;
34978;SDS011;21185;50.978;13.720;2023-05-20T19:04:50;14.27;;;7.75;;
34978;SDS011;21185;50.978;13.720;2023-05-20T19:09:52;11.02;;;6.03;;
34978;SDS011;21185;50.978;13.720;2023-05-20T19:14:55;13.98;;;7.05;;
34978;SDS011;21185;50.978;13.720;2023-05-20T19:19:58;14.55;;;8.10;;
34978;SDS011;21185;50.978;13.720;2023-05-20T19:25:00;11.00;;;6.78;;
34978;SDS011;21185;50.978;13.720;2023-05-20T19:30:02;16.13;;;7.65;;
34978;SDS011;21185;50.978;13.720;2023-05-20T19:35:05;14.68;;;6.50;;
34978;SDS011;21185;50.978;13.720;2023-05-20T19:40:08;12.32;;;6.28;;
34978;SDS011;21185;50.978;13.720;2023-05-20T19:45:11;12.35;;;6.68;;
34978;SDS011;21185;50.978;13.720;2023-05-20T19:50:13;13.07;;;6.70;;
34978;SDS011;21185;50.978;13.720;2023-05-20T19:55:15;14.77;;;6.88;;
34978;SDS011;21185;50.978;13.720;2023-05-20T20:00:19;16.77;;;8.30;;
34978;SDS011;21185;50.978;13.720;2023-05-20T20:05:22;17.33;;;7.35;;
34978;SDS011;21185;50.978;13.720;2023-05-20T20:10:27;14.02;;;7.28;;
34978;SDS011;21185;50.978;13.720;2023-05-20T20:15:31;14.77;;;7.70;;
34978;SDS011;21185;50.978;13.720;2023-05-20T20:20:34;17.52;;;7.78;;
34978;SDS011;21185;50.978;13.720;2023-05-20T20:25:40;15.93;;;7.55;;
34978;SDS011;21185;50.978;13.720;2023-05-20T20:30:43;13.75;;;6.63;;
34978;SDS011;21185;50.978;13.720;2023-05-20T20:35:46;13.95;;;6.75;;
34978;SDS011;21185;50.978;13.720;2023-05-20T20:40:49;11.20;;;6.88;;
34978;SDS011;21185;50.978;13.720;2023-05-20T20:46:01;18.08;;;7.63;;
34978;SDS011;21185;50.978;13.720;2023-05-20T20:51:04;14.52;;;7.38;;
34978;SDS011;21185;50.978;13.720;2023-05-20T20:56:06;12.55;;;7.18;;
34978;SDS011;21185;50.978;13.720;2023-05-20T21:01:12;17.63;;;8.13;;
34978;SDS011;21185;50.978;13.720;2023-05-20T21:06:18;15.95;;;8.25;;
34978;SDS011;21185;50.978;13.720;2023-05-20T21:11:20;12.13;;;7.03;;
34978;SDS011;21185;50.978;13.720;2023-05-20T21:16:23;13.50;;;6.72;;
34978;SDS011;21185;50.978;13.720;2023-05-20T21:21:25;14.68;;;7.78;;
34978;SDS011;21185;50.978;13.720;2023-05-20T21:26:27;18.92;;;8.27;;
34978;SDS011;21185;50.978;13.720;2023-05-20T21:31:29;16.95;;;8.13;;
34978;SDS011;21185;50.978;13.720;2023-05-20T21:36:31;19.45;;;8.38;;
34978;SDS011;21185;50.978;13.720;2023-05-20T21:41:33;14.38;;;7.57;;
34978;SDS011;21185;50.978;13.720;2023-05-20T21:46:35;17.02;;;7.85;;
34978;SDS011;21185;50.978;13.720;2023-05-20T21:51:40;19.30;;;8.35;;
34978;SDS011;21185;50.978;13.720;2023-05-20T22:01:50;16.00;;;8.65;;
34978;SDS011;21185;50.978;13.720;2023-05-20T22:06:52;20.50;;;10.13;;
34978;SDS011;21185;50.978;13.720;2023-05-20T22:11:54;25.50;;;11.57;;
34978;SDS011;21185;50.978;13.720;2023-05-20T22:17:04;19.35;;;10.38;;
34978;SDS011;21185;50.978;13.720;2023-05-20T22:22:06;18.90;;;9.57;;
34978;SDS011;21185;50.978;13.720;2023-05-20T22:27:08;22.77;;;9.82;;
34978;SDS011;21185;50.978;13.720;2023-05-20T22:32:10;14.43;;;7.97;;
34978;SDS011;21185;50.978;13.720;2023-05-20T22:37:12;16.45;;;8.85;;
34978;SDS011;21185;50.978;13.720;2023-05-20T22:42:14;16.70;;;8.73;;
34978;SDS011;21185;50.978;13.720;2023-05-20T22:47:16;18.33;;;8.68;;
34978;SDS011;21185;50.978;13.720;2023-05-20T22:52:21;19.05;;;9.25;;
34978;SDS011;21185;50.978;13.720;2023-05-20T22:57:26;23.10;;;9.07;;
34978;SDS011;21185;50.978;13.720;2023-05-20T23:02:28;17.98;;;8.32;;
34978;SDS011;21185;50.978;13.720;2023-05-20T23:07:34;15.27;;;7.13;;
34978;SDS011;21185;50.978;13.720;2023-05-20T23:12:36;13.98;;;7.78;;
34978;SDS011;21185;50.978;13.720;2023-05-20T23:17:38;18.98;;;8.75;;
34978;SDS011;21185;50.978;13.720;2023-05-20T23:22:41;16.50;;;7.72;;
34978;SDS011;21185;50.978;13.720;2023-05-20T23:27:43;15.73;;;8.30;;
34978;SDS011;21185;50.978;13.720;2023-05-20T23:32:45;16.90;;;8.07;;
34978;SDS011;21185;50.978;13.720;2023-05-20T23:37:47;15.27;;;8.00;;
34978;SDS011;21185;50.978;13.720;2023-05-20T23:42:49;15.93;;;8.18;;
34978;SDS011;21185;50.978;13.720;2023-05-20T23:47:51;17.67;;;9.02;;
34978;SDS011;21185;50.978;13.720;2023-05-20T23:52:54;17.58;;;9.02;;
34978;SDS011;21185;50.978;13.720;2023-05-20T23:57:56;16.65;;;8.63;;
